ΕΜΥ, Εθνική Μετεωρολογική Υπηρεσία - Δελτία Καιρού, Προγνώσεις

ΑΕΡΟΝΑΥΤΙΛΙΑ

GREEK AIRPORTS CODES

LGSO 040420Z AUTO 22008KT //// // ////// 07/M01 Q1017 RE//=

EUROPEAN AIRPORTS CODES

LFPO 040430Z 30004KT 9999 FEW011 BKN031 09/07 Q1036 NOSIG=